Heron Lake, Minnesota
Current Conditions -  °F | °C
As of 6:33 AM on Friday 28 Nov 2014 (Local Time) from KMWM Reporting Station
Clear Clear  
Wind Chill:   Ceiling: Unl
Heat Index: 12°   Visibility: 10mi
Dew Point:   Wind: 5mph
Humidity: 85%   Direction: 130°SE
Pressure: 29.9"   Gusts: NA
Location:  43.79°N, 95.32°W
Report Text: KMWM 281233Z AUTO 13004KT 10SM CLR M11/M13 A2990 RMK AO2
Loading
Personal Weather Stations






























Interactive Weather Map New forecast layout! Learn more

10-Day Weather Forecast

Advertisements
Track Severe Weather on mobile